ETEB/QOB METAR and TAF weather

Enter ICAO airport designator
Station Type Date Time Source
ETEB METAR 2021/03/05 18:56 UTC NOAA

ETEB 051856Z AUTO 04005KT 9999 CLR M01/M05 A3036 RMK AO2 SLP322 T10061052 $


Station Type Date Time Source
ETEB Decoded METAR 2021/03/05 18:56 UTC NOAA

Ansbach / Katterbach, Germany (ETEB) 49-19N 010-38E 476M
Mar 05, 2021 - 01:56 PM EST / 2021.03.05 1856 UTC
Wind: from the NE (040 degrees) at 6 MPH (5 KT):0
Visibility: greater than 7 mile(s):0
Sky conditions: clear
Temperature: 30.9 F (-0.6 C)
Windchill: 24 F (-4 C):1
Dew Point: 22.6 F (-5.2 C)
Relative Humidity: 71%
Pressure (altimeter): 30.36 in. Hg (1028 hPa)
ob: ETEB 051856Z AUTO 04005KT 9999 CLR M01/M05 A3036 RMK AO2 SLP322 T10061052
cycle: 19

Station Type Date Time Source
ETEB TAF 2021/03/05 12:34 UTC NOAA

TAF
AMD ETEB 051220Z 0512/0615 36009KT 5000 -SHSN BR SCT007 OVC010 610108 QNH3014INS
TEMPO 0512/0514 4000 -SHSN BKN007 610078
BECMG 0514/0515 01009KT 9999 NSW BKN015 620156 QNH3018INS
BECMG 0517/0518 03009KT 9999 SCT020 QNH3030INS WND 08006KT AFT 0600 TX04/0514Z TNM05/0605Z LAST NO
AMDS AFT 0517 NEXT 0809

Example: see airport list